sensor_id;sensor_type;location;lat;lon;timestamp;P1;durP1;ratioP1;P2;durP2;ratioP2
78895;SDS011;68284;59.124;37.910;2023-07-02T00:01:54;8.02;;;6.18;;
78895;SDS011;68284;59.124;37.910;2023-07-02T00:04:21;7.93;;;6.18;;
78895;SDS011;68284;59.124;37.910;2023-07-02T00:06:47;6.45;;;5.65;;
78895;SDS011;68284;59.124;37.910;2023-07-02T00:09:14;6.20;;;5.38;;
78895;SDS011;68284;59.124;37.910;2023-07-02T00:11:42;6.28;;;5.22;;
78895;SDS011;68284;59.124;37.910;2023-07-02T00:14:10;6.82;;;5.85;;
78895;SDS011;68284;59.124;37.910;2023-07-02T00:16:41;9.40;;;5.88;;
78895;SDS011;68284;59.124;37.910;2023-07-02T00:19:11;7.72;;;5.57;;
78895;SDS011;68284;59.124;37.910;2023-07-02T00:21:39;8.45;;;5.60;;
78895;SDS011;68284;59.124;37.910;2023-07-02T00:24:06;8.77;;;6.70;;
78895;SDS011;68284;59.124;37.910;2023-07-02T00:26:35;10.15;;;5.80;;
78895;SDS011;68284;59.124;37.910;2023-07-02T00:29:03;6.05;;;5.25;;
78895;SDS011;68284;59.124;37.910;2023-07-02T00:31:32;7.25;;;5.90;;
78895;SDS011;68284;59.124;37.910;2023-07-02T00:33:59;9.52;;;6.10;;
78895;SDS011;68284;59.124;37.910;2023-07-02T00:36:30;11.52;;;6.35;;
78895;SDS011;68284;59.124;37.910;2023-07-02T00:38:57;9.68;;;6.60;;
78895;SDS011;68284;59.124;37.910;2023-07-02T00:41:24;9.98;;;6.53;;
78895;SDS011;68284;59.124;37.910;2023-07-02T00:43:51;11.40;;;6.63;;
78895;SDS011;68284;59.124;37.910;2023-07-02T00:46:21;15.40;;;6.43;;
78895;SDS011;68284;59.124;37.910;2023-07-02T00:48:52;9.95;;;6.03;;
78895;SDS011;68284;59.124;37.910;2023-07-02T00:51:21;15.75;;;6.82;;
78895;SDS011;68284;59.124;37.910;2023-07-02T00:53:52;16.17;;;7.20;;
78895;SDS011;68284;59.124;37.910;2023-07-02T00:56:25;10.38;;;5.63;;
78895;SDS011;68284;59.124;37.910;2023-07-02T00:58:56;14.48;;;6.65;;
78895;SDS011;68284;59.124;37.910;2023-07-02T01:01:25;16.92;;;8.52;;
78895;SDS011;68284;59.124;37.910;2023-07-02T01:08:59;14.30;;;6.65;;
78895;SDS011;68284;59.124;37.910;2023-07-02T01:14:13;11.30;;;6.40;;
78895;SDS011;68284;59.124;37.910;2023-07-02T01:16:43;13.23;;;7.88;;
78895;SDS011;68284;59.124;37.910;2023-07-02T01:19:19;15.77;;;8.02;;
78895;SDS011;68284;59.124;37.910;2023-07-02T01:21:51;9.45;;;6.28;;
78895;SDS011;68284;59.124;37.910;2023-07-02T01:24:17;13.27;;;6.80;;
78895;SDS011;68284;59.124;37.910;2023-07-02T01:26:44;7.93;;;6.45;;
78895;SDS011;68284;59.124;37.910;2023-07-02T01:29:18;15.63;;;7.45;;
78895;SDS011;68284;59.124;37.910;2023-07-02T01:31:46;7.40;;;6.57;;
78895;SDS011;68284;59.124;37.910;2023-07-02T01:34:13;8.93;;;6.25;;
78895;SDS011;68284;59.124;37.910;2023-07-02T01:36:42;7.85;;;7.05;;
78895;SDS011;68284;59.124;37.910;2023-07-02T01:39:08;7.68;;;6.68;;
78895;SDS011;68284;59.124;37.910;2023-07-02T01:41:37;8.55;;;5.80;;
78895;SDS011;68284;59.124;37.910;2023-07-02T01:44:09;7.40;;;5.82;;
78895;SDS011;68284;59.124;37.910;2023-07-02T01:46:36;6.72;;;6.07;;
78895;SDS011;68284;59.124;37.910;2023-07-02T01:49:03;7.82;;;5.82;;
78895;SDS011;68284;59.124;37.910;2023-07-02T01:51:29;6.45;;;5.63;;
78895;SDS011;68284;59.124;37.910;2023-07-02T01:53:59;10.73;;;6.90;;
78895;SDS011;68284;59.124;37.910;2023-07-02T01:56:26;7.38;;;6.50;;
78895;SDS011;68284;59.124;37.910;2023-07-02T01:58:54;7.78;;;6.97;;
78895;SDS011;68284;59.124;37.910;2023-07-02T02:01:20;10.85;;;6.38;;
78895;SDS011;68284;59.124;37.910;2023-07-02T02:03:47;9.50;;;7.55;;
78895;SDS011;68284;59.124;37.910;2023-07-02T02:06:13;9.02;;;7.40;;
78895;SDS011;68284;59.124;37.910;2023-07-02T02:08:40;14.55;;;7.70;;
78895;SDS011;68284;59.124;37.910;2023-07-02T02:11:06;10.25;;;8.13;;
78895;SDS011;68284;59.124;37.910;2023-07-02T02:13:33;11.23;;;8.55;;
78895;SDS011;68284;59.124;37.910;2023-07-02T02:16:00;10.48;;;7.80;;
78895;SDS011;68284;59.124;37.910;2023-07-02T02:18:26;13.30;;;8.30;;
78895;SDS011;68284;59.124;37.910;2023-07-02T02:20:52;17.35;;;8.90;;
78895;SDS011;68284;59.124;37.910;2023-07-02T02:23:19;12.57;;;7.05;;
78895;SDS011;68284;59.124;37.910;2023-07-02T02:25:45;15.70;;;7.28;;
78895;SDS011;68284;59.124;37.910;2023-07-02T02:28:13;10.18;;;7.63;;
78895;SDS011;68284;59.124;37.910;2023-07-02T02:30:40;12.07;;;8.43;;
78895;SDS011;68284;59.124;37.910;2023-07-02T02:33:06;9.95;;;6.82;;
78895;SDS011;68284;59.124;37.910;2023-07-02T02:35:34;8.80;;;6.35;;
78895;SDS011;68284;59.124;37.910;2023-07-02T02:38:03;9.18;;;6.65;;
78895;SDS011;68284;59.124;37.910;2023-07-02T02:40:30;8.23;;;7.03;;
78895;SDS011;68284;59.124;37.910;2023-07-02T02:42:57;6.80;;;6.13;;
78895;SDS011;68284;59.124;37.910;2023-07-02T02:45:23;7.35;;;6.32;;
78895;SDS011;68284;59.124;37.910;2023-07-02T02:47:50;7.32;;;6.07;;
78895;SDS011;68284;59.124;37.910;2023-07-02T02:50:17;11.80;;;5.80;;
78895;SDS011;68284;59.124;37.910;2023-07-02T02:52:45;9.55;;;6.72;;
78895;SDS011;68284;59.124;37.910;2023-07-02T02:55:12;7.55;;;5.60;;
78895;SDS011;68284;59.124;37.910;2023-07-02T02:57:39;8.35;;;6.07;;
78895;SDS011;68284;59.124;37.910;2023-07-02T03:00:05;10.82;;;6.32;;
78895;SDS011;68284;59.124;37.910;2023-07-02T03:02:33;10.30;;;6.85;;
78895;SDS011;68284;59.124;37.910;2023-07-02T03:04:59;9.25;;;7.30;;
78895;SDS011;68284;59.124;37.910;2023-07-02T03:07:28;7.13;;;5.97;;
78895;SDS011;68284;59.124;37.910;2023-07-02T03:09:55;6.13;;;5.38;;
78895;SDS011;68284;59.124;37.910;2023-07-02T03:12:22;6.78;;;6.07;;
78895;SDS011;68284;59.124;37.910;2023-07-02T03:14:48;7.45;;;5.82;;
78895;SDS011;68284;59.124;37.910;2023-07-02T03:17:19;8.13;;;5.85;;
78895;SDS011;68284;59.124;37.910;2023-07-02T03:19:46;7.93;;;6.60;;
78895;SDS011;68284;59.124;37.910;2023-07-02T03:22:12;7.40;;;5.65;;
78895;SDS011;68284;59.124;37.910;2023-07-02T03:24:39;7.13;;;5.95;;
78895;SDS011;68284;59.124;37.910;2023-07-02T03:27:05;6.72;;;5.38;;
78895;SDS011;68284;59.124;37.910;2023-07-02T03:29:35;6.15;;;5.40;;
78895;SDS011;68284;59.124;37.910;2023-07-02T03:32:04;6.57;;;5.80;;
78895;SDS011;68284;59.124;37.910;2023-07-02T03:34:31;6.97;;;5.13;;
78895;SDS011;68284;59.124;37.910;2023-07-02T03:36:57;7.95;;;5.93;;
78895;SDS011;68284;59.124;37.910;2023-07-02T03:39:24;7.47;;;5.47;;
78895;SDS011;68284;59.124;37.910;2023-07-02T03:41:50;7.15;;;6.40;;
78895;SDS011;68284;59.124;37.910;2023-07-02T03:44:16;7.63;;;4.88;;
78895;SDS011;68284;59.124;37.910;2023-07-02T03:46:43;5.90;;;5.28;;
78895;SDS011;68284;59.124;37.910;2023-07-02T03:49:09;7.88;;;5.88;;
78895;SDS011;68284;59.124;37.910;2023-07-02T03:51:35;10.85;;;5.95;;
78895;SDS011;68284;59.124;37.910;2023-07-02T03:54:02;5.97;;;5.18;;
78895;SDS011;68284;59.124;37.910;2023-07-02T03:56:28;7.05;;;5.63;;
78895;SDS011;68284;59.124;37.910;2023-07-02T03:58:55;5.90;;;5.30;;
78895;SDS011;68284;59.124;37.910;2023-07-02T04:01:21;5.72;;;5.07;;
78895;SDS011;68284;59.124;37.910;2023-07-02T04:03:48;6.20;;;5.60;;
78895;SDS011;68284;59.124;37.910;2023-07-02T04:06:16;6.63;;;5.78;;
78895;SDS011;68284;59.124;37.910;2023-07-02T04:08:43;7.78;;;6.32;;
78895;SDS011;68284;59.124;37.910;2023-07-02T04:11:10;5.07;;;4.15;;
78895;SDS011;68284;59.124;37.910;2023-07-02T04:13:37;5.95;;;5.32;;
78895;SDS011;68284;59.124;37.910;2023-07-02T04:16:05;5.82;;;5.22;;
78895;SDS011;68284;59.124;37.910;2023-07-02T04:18:31;4.80;;;3.95;;
78895;SDS011;68284;59.124;37.910;2023-07-02T04:20:58;7.15;;;5.40;;
78895;SDS011;68284;59.124;37.910;2023-07-02T04:23:25;6.50;;;5.35;;
78895;SDS011;68284;59.124;37.910;2023-07-02T04:25:51;6.95;;;4.78;;
78895;SDS011;68284;59.124;37.910;2023-07-02T04:28:18;7.68;;;4.38;;
78895;SDS011;68284;59.124;37.910;2023-07-02T04:30:45;5.15;;;4.45;;
78895;SDS011;68284;59.124;37.910;2023-07-02T04:33:15;7.28;;;5.22;;
78895;SDS011;68284;59.124;37.910;2023-07-02T04:35:41;7.63;;;4.95;;
78895;SDS011;68284;59.124;37.910;2023-07-02T04:38:09;5.78;;;5.28;;
78895;SDS011;68284;59.124;37.910;2023-07-02T04:40:35;4.57;;;4.03;;
78895;SDS011;68284;59.124;37.910;2023-07-02T04:43:01;5.25;;;3.90;;
78895;SDS011;68284;59.124;37.910;2023-07-02T04:45:28;5.07;;;4.28;;
78895;SDS011;68284;59.124;37.910;2023-07-02T04:47:58;6.00;;;4.70;;
78895;SDS011;68284;59.124;37.910;2023-07-02T04:50:26;4.63;;;3.72;;
78895;SDS011;68284;59.124;37.910;2023-07-02T04:52:52;5.40;;;3.30;;
78895;SDS011;68284;59.124;37.910;2023-07-02T04:55:20;5.20;;;3.38;;
78895;SDS011;68284;59.124;37.910;2023-07-02T04:57:46;4.97;;;3.33;;
78895;SDS011;68284;59.124;37.910;2023-07-02T05:00:12;4.88;;;3.38;;
78895;SDS011;68284;59.124;37.910;2023-07-02T05:02:40;4.55;;;2.97;;
78895;SDS011;68284;59.124;37.910;2023-07-02T05:05:06;6.72;;;3.38;;
78895;SDS011;68284;59.124;37.910;2023-07-02T05:07:33;6.88;;;4.05;;
78895;SDS011;68284;59.124;37.910;2023-07-02T05:09:59;5.88;;;3.72;;
78895;SDS011;68284;59.124;37.910;2023-07-02T05:12:25;4.40;;;3.60;;
78895;SDS011;68284;59.124;37.910;2023-07-02T05:14:51;7.35;;;4.10;;
78895;SDS011;68284;59.124;37.910;2023-07-02T05:17:17;4.38;;;3.83;;
78895;SDS011;68284;59.124;37.910;2023-07-02T05:19:43;3.67;;;3.38;;
78895;SDS011;68284;59.124;37.910;2023-07-02T05:22:10;3.80;;;3.30;;
78895;SDS011;68284;59.124;37.910;2023-07-02T05:24:36;5.28;;;3.92;;
78895;SDS011;68284;59.124;37.910;2023-07-02T05:27:02;4.43;;;4.03;;
78895;SDS011;68284;59.124;37.910;2023-07-02T05:29:29;8.50;;;3.90;;
78895;SDS011;68284;59.124;37.910;2023-07-02T05:31:56;5.65;;;3.45;;
78895;SDS011;68284;59.124;37.910;2023-07-02T05:34:22;7.60;;;3.78;;
78895;SDS011;68284;59.124;37.910;2023-07-02T05:36:48;5.93;;;3.78;;
78895;SDS011;68284;59.124;37.910;2023-07-02T05:39:14;6.90;;;4.00;;
78895;SDS011;68284;59.124;37.910;2023-07-02T05:41:40;4.85;;;4.18;;
78895;SDS011;68284;59.124;37.910;2023-07-02T05:44:06;4.90;;;4.03;;
78895;SDS011;68284;59.124;37.910;2023-07-02T05:46:32;5.05;;;3.75;;
78895;SDS011;68284;59.124;37.910;2023-07-02T05:48:59;4.13;;;3.38;;
78895;SDS011;68284;59.124;37.910;2023-07-02T05:51:26;3.80;;;2.97;;
78895;SDS011;68284;59.124;37.910;2023-07-02T05:53:52;5.68;;;3.25;;
78895;SDS011;68284;59.124;37.910;2023-07-02T05:56:19;5.35;;;3.50;;
78895;SDS011;68284;59.124;37.910;2023-07-02T05:58:45;5.63;;;3.20;;
78895;SDS011;68284;59.124;37.910;2023-07-02T06:01:12;4.50;;;4.10;;
78895;SDS011;68284;59.124;37.910;2023-07-02T06:03:39;4.57;;;3.90;;
78895;SDS011;68284;59.124;37.910;2023-07-02T06:06:05;6.25;;;4.10;;
78895;SDS011;68284;59.124;37.910;2023-07-02T06:08:34;6.13;;;3.95;;
78895;SDS011;68284;59.124;37.910;2023-07-02T06:11:01;5.78;;;3.45;;
78895;SDS011;68284;59.124;37.910;2023-07-02T06:13:28;5.95;;;3.83;;
78895;SDS011;68284;59.124;37.910;2023-07-02T06:15:54;3.92;;;2.92;;
78895;SDS011;68284;59.124;37.910;2023-07-02T06:18:20;4.88;;;2.90;;
78895;SDS011;68284;59.124;37.910;2023-07-02T06:20:46;6.13;;;2.88;;
78895;SDS011;68284;59.124;37.910;2023-07-02T06:23:13;5.50;;;3.78;;
78895;SDS011;68284;59.124;37.910;2023-07-02T06:25:39;6.20;;;3.65;;
78895;SDS011;68284;59.124;37.910;2023-07-02T06:28:05;4.07;;;3.65;;
78895;SDS011;68284;59.124;37.910;2023-07-02T06:30:31;4.68;;;3.25;;
78895;SDS011;68284;59.124;37.910;2023-07-02T06:32:57;4.82;;;3.05;;
78895;SDS011;68284;59.124;37.910;2023-07-02T06:35:23;3.25;;;2.95;;
78895;SDS011;68284;59.124;37.910;2023-07-02T06:37:49;5.45;;;3.78;;
78895;SDS011;68284;59.124;37.910;2023-07-02T06:40:16;4.75;;;3.30;;
78895;SDS011;68284;59.124;37.910;2023-07-02T06:42:44;4.90;;;3.50;;
78895;SDS011;68284;59.124;37.910;2023-07-02T06:45:10;3.28;;;2.78;;
78895;SDS011;68284;59.124;37.910;2023-07-02T06:47:37;5.65;;;3.15;;
78895;SDS011;68284;59.124;37.910;2023-07-02T06:50:04;4.47;;;2.72;;
78895;SDS011;68284;59.124;37.910;2023-07-02T06:52:31;11.68;;;2.63;;
78895;SDS011;68284;59.124;37.910;2023-07-02T06:54:57;4.70;;;2.83;;
78895;SDS011;68284;59.124;37.910;2023-07-02T06:57:23;4.30;;;2.67;;
78895;SDS011;68284;59.124;37.910;2023-07-02T06:59:50;5.80;;;2.75;;
78895;SDS011;68284;59.124;37.910;2023-07-02T07:02:17;4.63;;;3.08;;
78895;SDS011;68284;59.124;37.910;2023-07-02T07:04:43;3.95;;;2.45;;
78895;SDS011;68284;59.124;37.910;2023-07-02T07:07:09;4.72;;;3.47;;
78895;SDS011;68284;59.124;37.910;2023-07-02T07:09:36;5.22;;;3.15;;
78895;SDS011;68284;59.124;37.910;2023-07-02T07:12:02;4.05;;;3.53;;
78895;SDS011;68284;59.124;37.910;2023-07-02T07:14:29;4.13;;;2.88;;
78895;SDS011;68284;59.124;37.910;2023-07-02T07:16:55;4.15;;;3.00;;
78895;SDS011;68284;59.124;37.910;2023-07-02T07:19:22;4.57;;;3.17;;
78895;SDS011;68284;59.124;37.910;2023-07-02T07:21:48;5.18;;;2.85;;
78895;SDS011;68284;59.124;37.910;2023-07-02T07:24:14;4.22;;;3.33;;
78895;SDS011;68284;59.124;37.910;2023-07-02T07:26:41;5.20;;;3.45;;
78895;SDS011;68284;59.124;37.910;2023-07-02T07:29:08;5.63;;;3.20;;
78895;SDS011;68284;59.124;37.910;2023-07-02T07:31:34;5.53;;;3.08;;
78895;SDS011;68284;59.124;37.910;2023-07-02T07:34:00;3.75;;;2.47;;
78895;SDS011;68284;59.124;37.910;2023-07-02T07:36:29;6.38;;;2.83;;
78895;SDS011;68284;59.124;37.910;2023-07-02T07:38:55;6.43;;;2.60;;
78895;SDS011;68284;59.124;37.910;2023-07-02T07:41:21;8.38;;;2.72;;
78895;SDS011;68284;59.124;37.910;2023-07-02T07:43:48;5.47;;;2.08;;
78895;SDS011;68284;59.124;37.910;2023-07-02T07:46:16;5.13;;;1.80;;
78895;SDS011;68284;59.124;37.910;2023-07-02T07:48:42;3.63;;;1.70;;
78895;SDS011;68284;59.124;37.910;2023-07-02T07:51:11;2.83;;;1.75;;
78895;SDS011;68284;59.124;37.910;2023-07-02T07:53:38;5.43;;;2.33;;
78895;SDS011;68284;59.124;37.910;2023-07-02T07:56:06;3.17;;;2.45;;
78895;SDS011;68284;59.124;37.910;2023-07-02T07:58:32;2.00;;;1.80;;
78895;SDS011;68284;59.124;37.910;2023-07-02T08:00:59;2.63;;;2.42;;
78895;SDS011;68284;59.124;37.910;2023-07-02T08:03:25;4.25;;;2.00;;
78895;SDS011;68284;59.124;37.910;2023-07-02T08:05:52;2.55;;;1.90;;
78895;SDS011;68284;59.124;37.910;2023-07-02T08:08:18;4.18;;;2.55;;
78895;SDS011;68284;59.124;37.910;2023-07-02T08:10:44;3.63;;;3.03;;
78895;SDS011;68284;59.124;37.910;2023-07-02T08:13:12;3.15;;;2.53;;
78895;SDS011;68284;59.124;37.910;2023-07-02T08:15:39;6.60;;;2.95;;
78895;SDS011;68284;59.124;37.910;2023-07-02T08:18:05;2.90;;;2.60;;
78895;SDS011;68284;59.124;37.910;2023-07-02T08:20:33;3.60;;;2.25;;
78895;SDS011;68284;59.124;37.910;2023-07-02T08:22:59;4.85;;;2.78;;
78895;SDS011;68284;59.124;37.910;2023-07-02T08:25:25;3.08;;;2.38;;
78895;SDS011;68284;59.124;37.910;2023-07-02T08:27:53;7.50;;;1.88;;
78895;SDS011;68284;59.124;37.910;2023-07-02T08:30:19;2.92;;;2.13;;
78895;SDS011;68284;59.124;37.910;2023-07-02T08:32:45;2.65;;;2.03;;
78895;SDS011;68284;59.124;37.910;2023-07-02T08:35:13;2.72;;;2.03;;
78895;SDS011;68284;59.124;37.910;2023-07-02T08:37:40;1.67;;;1.58;;
78895;SDS011;68284;59.124;37.910;2023-07-02T08:40:14;2.63;;;2.20;;
78895;SDS011;68284;59.124;37.910;2023-07-02T08:42:44;3.20;;;1.90;;
78895;SDS011;68284;59.124;37.910;2023-07-02T08:45:14;4.15;;;2.53;;
78895;SDS011;68284;59.124;37.910;2023-07-02T08:47:44;4.13;;;2.25;;
78895;SDS011;68284;59.124;37.910;2023-07-02T08:50:13;2.78;;;1.90;;
78895;SDS011;68284;59.124;37.910;2023-07-02T08:52:40;6.13;;;2.25;;
78895;SDS011;68284;59.124;37.910;2023-07-02T08:55:06;3.20;;;1.98;;
78895;SDS011;68284;59.124;37.910;2023-07-02T08:57:34;2.75;;;2.38;;
78895;SDS011;68284;59.124;37.910;2023-07-02T09:00:08;3.35;;;2.33;;
78895;SDS011;68284;59.124;37.910;2023-07-02T09:02:36;2.67;;;2.40;;
78895;SDS011;68284;59.124;37.910;2023-07-02T09:05:02;4.85;;;2.72;;
78895;SDS011;68284;59.124;37.910;2023-07-02T09:07:30;3.55;;;2.72;;
78895;SDS011;68284;59.124;37.910;2023-07-02T09:09:56;3.83;;;2.38;;
78895;SDS011;68284;59.124;37.910;2023-07-02T09:12:23;4.00;;;2.38;;
78895;SDS011;68284;59.124;37.910;2023-07-02T09:15:00;2.92;;;2.50;;
78895;SDS011;68284;59.124;37.910;2023-07-02T09:17:31;4.70;;;2.72;;
78895;SDS011;68284;59.124;37.910;2023-07-02T09:20:06;5.90;;;2.65;;
78895;SDS011;68284;59.124;37.910;2023-07-02T09:22:35;5.50;;;3.05;;
78895;SDS011;68284;59.124;37.910;2023-07-02T09:25:04;4.57;;;2.85;;
78895;SDS011;68284;59.124;37.910;2023-07-02T09:30:13;4.05;;;2.10;;
78895;SDS011;68284;59.124;37.910;2023-07-02T09:32:43;2.58;;;2.15;;
78895;SDS011;68284;59.124;37.910;2023-07-02T09:35:13;3.60;;;2.20;;
78895;SDS011;68284;59.124;37.910;2023-07-02T09:37:42;4.00;;;2.58;;
78895;SDS011;68284;59.124;37.910;2023-07-02T09:40:09;4.85;;;2.15;;
78895;SDS011;68284;59.124;37.910;2023-07-02T09:42:38;3.47;;;3.17;;
78895;SDS011;68284;59.124;37.910;2023-07-02T09:45:07;5.28;;;2.22;;
78895;SDS011;68284;59.124;37.910;2023-07-02T09:47:38;4.25;;;2.50;;
78895;SDS011;68284;59.124;37.910;2023-07-02T09:50:09;2.63;;;2.42;;
78895;SDS011;68284;59.124;37.910;2023-07-02T09:52:38;11.13;;;2.45;;
78895;SDS011;68284;59.124;37.910;2023-07-02T09:55:07;5.18;;;2.20;;
78895;SDS011;68284;59.124;37.910;2023-07-02T09:57:35;6.18;;;2.20;;
78895;SDS011;68284;59.124;37.910;2023-07-02T10:00:02;3.97;;;1.65;;
78895;SDS011;68284;59.124;37.910;2023-07-02T10:02:32;4.28;;;1.85;;
78895;SDS011;68284;59.124;37.910;2023-07-02T10:04:58;3.30;;;1.83;;
78895;SDS011;68284;59.124;37.910;2023-07-02T10:07:31;2.45;;;1.55;;
78895;SDS011;68284;59.124;37.910;2023-07-02T10:10:01;2.67;;;1.75;;
78895;SDS011;68284;59.124;37.910;2023-07-02T10:12:30;1.73;;;1.40;;
78895;SDS011;68284;59.124;37.910;2023-07-02T10:14:59;6.18;;;2.00;;
78895;SDS011;68284;59.124;37.910;2023-07-02T10:17:29;3.05;;;2.60;;
78895;SDS011;68284;59.124;37.910;2023-07-02T10:20:04;3.92;;;1.85;;
78895;SDS011;68284;59.124;37.910;2023-07-02T10:22:46;6.07;;;2.33;;
78895;SDS011;68284;59.124;37.910;2023-07-02T10:28:20;4.07;;;2.40;;
78895;SDS011;68284;59.124;37.910;2023-07-02T10:30:48;3.08;;;2.22;;
78895;SDS011;68284;59.124;37.910;2023-07-02T10:33:18;3.50;;;2.55;;
78895;SDS011;68284;59.124;37.910;2023-07-02T10:35:45;5.70;;;2.10;;
78895;SDS011;68284;59.124;37.910;2023-07-02T10:38:19;4.45;;;2.22;;
78895;SDS011;68284;59.124;37.910;2023-07-02T10:40:47;3.72;;;2.22;;
78895;SDS011;68284;59.124;37.910;2023-07-02T10:43:26;3.38;;;1.90;;
78895;SDS011;68284;59.124;37.910;2023-07-02T10:45:54;6.32;;;2.30;;
78895;SDS011;68284;59.124;37.910;2023-07-02T10:48:21;3.75;;;2.60;;
78895;SDS011;68284;59.124;37.910;2023-07-02T10:50:48;5.93;;;2.25;;
78895;SDS011;68284;59.124;37.910;2023-07-02T10:53:15;3.20;;;1.77;;
78895;SDS011;68284;59.124;37.910;2023-07-02T10:55:42;2.33;;;1.85;;
78895;SDS011;68284;59.124;37.910;2023-07-02T10:58:10;3.08;;;1.60;;
78895;SDS011;68284;59.124;37.910;2023-07-02T11:00:46;3.42;;;2.17;;
78895;SDS011;68284;59.124;37.910;2023-07-02T11:03:17;3.47;;;2.03;;
78895;SDS011;68284;59.124;37.910;2023-07-02T11:05:47;1.65;;;1.40;;
78895;SDS011;68284;59.124;37.910;2023-07-02T11:08:15;4.63;;;2.38;;
78895;SDS011;68284;59.124;37.910;2023-07-02T11:10:41;7.88;;;2.22;;
78895;SDS011;68284;59.124;37.910;2023-07-02T11:13:16;4.93;;;2.10;;
78895;SDS011;68284;59.124;37.910;2023-07-02T11:15:43;4.65;;;2.10;;
78895;SDS011;68284;59.124;37.910;2023-07-02T11:18:14;2.92;;;1.92;;
78895;SDS011;68284;59.124;37.910;2023-07-02T11:20:43;2.47;;;1.85;;
78895;SDS011;68284;59.124;37.910;2023-07-02T11:23:23;2.95;;;1.83;;
78895;SDS011;68284;59.124;37.910;2023-07-02T11:25:54;4.93;;;1.98;;
78895;SDS011;68284;59.124;37.910;2023-07-02T11:28:22;4.25;;;1.90;;
78895;SDS011;68284;59.124;37.910;2023-07-02T11:30:50;3.22;;;1.80;;
78895;SDS011;68284;59.124;37.910;2023-07-02T11:33:17;5.40;;;2.55;;
78895;SDS011;68284;59.124;37.910;2023-07-02T11:35:43;2.22;;;1.90;;
78895;SDS011;68284;59.124;37.910;2023-07-02T11:38:09;1.88;;;1.75;;
78895;SDS011;68284;59.124;37.910;2023-07-02T11:40:36;3.05;;;2.03;;
78895;SDS011;68284;59.124;37.910;2023-07-02T11:43:03;2.53;;;2.33;;
78895;SDS011;68284;59.124;37.910;2023-07-02T11:45:30;4.88;;;2.38;;
78895;SDS011;68284;59.124;37.910;2023-07-02T11:47:56;4.22;;;1.85;;
78895;SDS011;68284;59.124;37.910;2023-07-02T11:50:22;2.58;;;2.00;;
78895;SDS011;68284;59.124;37.910;2023-07-02T11:52:48;2.97;;;1.90;;
78895;SDS011;68284;59.124;37.910;2023-07-02T11:55:15;2.13;;;1.38;;
78895;SDS011;68284;59.124;37.910;2023-07-02T11:57:41;3.92;;;2.08;;
78895;SDS011;68284;59.124;37.910;2023-07-02T12:00:08;3.45;;;2.15;;
78895;SDS011;68284;59.124;37.910;2023-07-02T12:02:34;3.05;;;1.67;;
78895;SDS011;68284;59.124;37.910;2023-07-02T12:05:01;2.65;;;1.77;;
78895;SDS011;68284;59.124;37.910;2023-07-02T12:07:28;2.97;;;2.35;;
78895;SDS011;68284;59.124;37.910;2023-07-02T12:09:54;6.15;;;2.10;;
78895;SDS011;68284;59.124;37.910;2023-07-02T12:12:20;3.65;;;2.00;;
78895;SDS011;68284;59.124;37.910;2023-07-02T12:14:47;2.50;;;1.70;;
78895;SDS011;68284;59.124;37.910;2023-07-02T12:17:15;3.03;;;1.75;;
78895;SDS011;68284;59.124;37.910;2023-07-02T12:19:42;2.47;;;1.80;;
78895;SDS011;68284;59.124;37.910;2023-07-02T12:22:08;2.78;;;1.90;;
78895;SDS011;68284;59.124;37.910;2023-07-02T12:24:36;2.72;;;1.85;;
78895;SDS011;68284;59.124;37.910;2023-07-02T12:27:02;4.82;;;2.05;;
78895;SDS011;68284;59.124;37.910;2023-07-02T12:29:28;4.38;;;2.10;;
78895;SDS011;68284;59.124;37.910;2023-07-02T12:31:55;4.30;;;2.05;;
78895;SDS011;68284;59.124;37.910;2023-07-02T12:34:21;4.22;;;2.05;;
78895;SDS011;68284;59.124;37.910;2023-07-02T12:36:47;3.42;;;2.03;;
78895;SDS011;68284;59.124;37.910;2023-07-02T12:39:13;2.28;;;1.90;;
78895;SDS011;68284;59.124;37.910;2023-07-02T12:41:39;2.03;;;1.77;;
78895;SDS011;68284;59.124;37.910;2023-07-02T12:44:06;4.75;;;1.98;;
78895;SDS011;68284;59.124;37.910;2023-07-02T12:46:32;2.83;;;1.80;;
78895;SDS011;68284;59.124;37.910;2023-07-02T12:48:59;2.53;;;1.70;;
78895;SDS011;68284;59.124;37.910;2023-07-02T12:51:25;3.38;;;1.70;;
78895;SDS011;68284;59.124;37.910;2023-07-02T12:53:51;4.00;;;2.28;;
78895;SDS011;68284;59.124;37.910;2023-07-02T12:56:18;2.70;;;1.65;;
78895;SDS011;68284;59.124;37.910;2023-07-02T12:58:44;2.95;;;1.70;;
78895;SDS011;68284;59.124;37.910;2023-07-02T13:01:10;2.63;;;1.70;;
78895;SDS011;68284;59.124;37.910;2023-07-02T13:03:37;3.17;;;2.15;;
78895;SDS011;68284;59.124;37.910;2023-07-02T13:06:03;2.10;;;1.90;;
78895;SDS011;68284;59.124;37.910;2023-07-02T13:08:30;3.50;;;1.90;;
78895;SDS011;68284;59.124;37.910;2023-07-02T13:10:56;3.63;;;2.00;;
78895;SDS011;68284;59.124;37.910;2023-07-02T13:13:22;2.88;;;2.33;;
78895;SDS011;68284;59.124;37.910;2023-07-02T13:15:49;3.95;;;2.10;;
78895;SDS011;68284;59.124;37.910;2023-07-02T13:18:17;4.32;;;2.22;;
78895;SDS011;68284;59.124;37.910;2023-07-02T13:20:44;3.40;;;2.13;;
78895;SDS011;68284;59.124;37.910;2023-07-02T13:23:11;3.88;;;2.17;;
78895;SDS011;68284;59.124;37.910;2023-07-02T13:25:42;2.90;;;2.40;;
78895;SDS011;68284;59.124;37.910;2023-07-02T13:28:08;3.78;;;2.08;;
78895;SDS011;68284;59.124;37.910;2023-07-02T13:30:36;4.72;;;2.63;;
78895;SDS011;68284;59.124;37.910;2023-07-02T13:33:02;3.83;;;2.17;;
78895;SDS011;68284;59.124;37.910;2023-07-02T13:35:29;4.38;;;2.13;;
78895;SDS011;68284;59.124;37.910;2023-07-02T13:37:59;4.90;;;2.17;;
78895;SDS011;68284;59.124;37.910;2023-07-02T13:40:25;3.55;;;1.77;;
78895;SDS011;68284;59.124;37.910;2023-07-02T13:42:53;3.13;;;1.73;;
78895;SDS011;68284;59.124;37.910;2023-07-02T13:45:19;2.72;;;1.83;;
78895;SDS011;68284;59.124;37.910;2023-07-02T13:47:46;2.88;;;2.03;;
78895;SDS011;68284;59.124;37.910;2023-07-02T13:50:18;3.58;;;1.98;;
78895;SDS011;68284;59.124;37.910;2023-07-02T13:52:48;5.32;;;2.20;;
78895;SDS011;68284;59.124;37.910;2023-07-02T13:55:15;3.13;;;2.05;;
78895;SDS011;68284;59.124;37.910;2023-07-02T13:57:41;4.07;;;2.05;;
78895;SDS011;68284;59.124;37.910;2023-07-02T14:00:08;3.45;;;2.03;;
78895;SDS011;68284;59.124;37.910;2023-07-02T14:02:35;3.00;;;2.20;;
78895;SDS011;68284;59.124;37.910;2023-07-02T14:05:01;3.30;;;2.08;;
78895;SDS011;68284;59.124;37.910;2023-07-02T14:07:28;2.60;;;2.20;;
78895;SDS011;68284;59.124;37.910;2023-07-02T14:09:54;3.38;;;2.50;;
78895;SDS011;68284;59.124;37.910;2023-07-02T14:12:21;2.45;;;2.13;;
78895;SDS011;68284;59.124;37.910;2023-07-02T14:14:47;3.78;;;2.60;;
78895;SDS011;68284;59.124;37.910;2023-07-02T14:17:14;4.03;;;2.50;;
78895;SDS011;68284;59.124;37.910;2023-07-02T14:19:40;3.17;;;2.20;;
78895;SDS011;68284;59.124;37.910;2023-07-02T14:22:06;3.85;;;2.45;;
78895;SDS011;68284;59.124;37.910;2023-07-02T14:24:33;4.10;;;2.80;;
78895;SDS011;68284;59.124;37.910;2023-07-02T14:26:59;4.93;;;2.83;;
78895;SDS011;68284;59.124;37.910;2023-07-02T14:29:26;3.50;;;2.67;;
78895;SDS011;68284;59.124;37.910;2023-07-02T14:31:52;5.82;;;3.10;;
78895;SDS011;68284;59.124;37.910;2023-07-02T14:34:18;4.00;;;2.83;;
78895;SDS011;68284;59.124;37.910;2023-07-02T14:36:44;3.80;;;2.80;;
78895;SDS011;68284;59.124;37.910;2023-07-02T14:39:11;5.22;;;2.75;;
78895;SDS011;68284;59.124;37.910;2023-07-02T14:41:42;4.20;;;2.78;;
78895;SDS011;68284;59.124;37.910;2023-07-02T14:44:10;3.80;;;2.63;;
78895;SDS011;68284;59.124;37.910;2023-07-02T14:46:36;5.13;;;3.10;;
78895;SDS011;68284;59.124;37.910;2023-07-02T14:49:02;3.65;;;2.50;;